sensor_id;sensor_type;location;lat;lon;timestamp;P1;durP1;ratioP1;P2;durP2;ratioP2
37001;SDS011;22913;51.910;8.374;2023-06-01T00:00:23;12.30;;;7.37;;
37001;SDS011;22913;51.910;8.374;2023-06-01T00:03:09;9.60;;;7.30;;
37001;SDS011;22913;51.910;8.374;2023-06-01T00:05:54;15.50;;;7.50;;
37001;SDS011;22913;51.910;8.374;2023-06-01T00:08:40;11.27;;;7.60;;
37001;SDS011;22913;51.910;8.374;2023-06-01T00:11:26;8.97;;;7.23;;
37001;SDS011;22913;51.910;8.374;2023-06-01T00:14:13;9.03;;;7.30;;
37001;SDS011;22913;51.910;8.374;2023-06-01T00:16:59;9.90;;;7.70;;
37001;SDS011;22913;51.910;8.374;2023-06-01T00:19:44;10.47;;;7.63;;
37001;SDS011;22913;51.910;8.374;2023-06-01T00:22:31;9.07;;;7.43;;
37001;SDS011;22913;51.910;8.374;2023-06-01T00:25:18;10.93;;;7.93;;
37001;SDS011;22913;51.910;8.374;2023-06-01T00:28:03;10.10;;;7.23;;
37001;SDS011;22913;51.910;8.374;2023-06-01T00:30:50;8.33;;;7.50;;
37001;SDS011;22913;51.910;8.374;2023-06-01T00:33:36;9.57;;;7.00;;
37001;SDS011;22913;51.910;8.374;2023-06-01T00:36:22;12.87;;;8.40;;
37001;SDS011;22913;51.910;8.374;2023-06-01T00:39:08;10.53;;;7.93;;
37001;SDS011;22913;51.910;8.374;2023-06-01T00:41:53;11.10;;;8.00;;
37001;SDS011;22913;51.910;8.374;2023-06-01T00:44:39;10.10;;;7.77;;
37001;SDS011;22913;51.910;8.374;2023-06-01T00:47:26;10.93;;;8.60;;
37001;SDS011;22913;51.910;8.374;2023-06-01T00:50:11;9.73;;;8.37;;
37001;SDS011;22913;51.910;8.374;2023-06-01T00:52:58;10.57;;;8.93;;
37001;SDS011;22913;51.910;8.374;2023-06-01T00:55:45;12.37;;;8.87;;
37001;SDS011;22913;51.910;8.374;2023-06-01T00:58:31;9.53;;;7.73;;
37001;SDS011;22913;51.910;8.374;2023-06-01T01:01:17;12.27;;;8.57;;
37001;SDS011;22913;51.910;8.374;2023-06-01T01:04:04;11.30;;;8.50;;
37001;SDS011;22913;51.910;8.374;2023-06-01T01:06:53;13.57;;;8.83;;
37001;SDS011;22913;51.910;8.374;2023-06-01T01:09:49;12.50;;;8.57;;
37001;SDS011;22913;51.910;8.374;2023-06-01T01:12:41;12.53;;;7.37;;
37001;SDS011;22913;51.910;8.374;2023-06-01T01:15:39;11.27;;;7.30;;
37001;SDS011;22913;51.910;8.374;2023-06-01T01:18:33;8.73;;;7.87;;
37001;SDS011;22913;51.910;8.374;2023-06-01T01:21:28;10.00;;;7.97;;
37001;SDS011;22913;51.910;8.374;2023-06-01T01:24:21;11.40;;;7.50;;
37001;SDS011;22913;51.910;8.374;2023-06-01T01:27:17;11.27;;;7.43;;
37001;SDS011;22913;51.910;8.374;2023-06-01T01:30:12;12.03;;;7.70;;
37001;SDS011;22913;51.910;8.374;2023-06-01T01:32:59;12.73;;;7.67;;
37001;SDS011;22913;51.910;8.374;2023-06-01T01:35:45;9.90;;;7.40;;
37001;SDS011;22913;51.910;8.374;2023-06-01T01:38:33;11.27;;;7.67;;
37001;SDS011;22913;51.910;8.374;2023-06-01T01:41:19;12.57;;;8.10;;
37001;SDS011;22913;51.910;8.374;2023-06-01T01:44:05;16.07;;;7.83;;
37001;SDS011;22913;51.910;8.374;2023-06-01T01:46:56;12.53;;;7.57;;
37001;SDS011;22913;51.910;8.374;2023-06-01T01:49:46;11.07;;;7.60;;
37001;SDS011;22913;51.910;8.374;2023-06-01T01:52:39;9.77;;;8.33;;
37001;SDS011;22913;51.910;8.374;2023-06-01T01:55:26;10.63;;;7.20;;
37001;SDS011;22913;51.910;8.374;2023-06-01T01:58:13;11.73;;;7.03;;
37001;SDS011;22913;51.910;8.374;2023-06-01T02:00:59;11.03;;;6.90;;
37001;SDS011;22913;51.910;8.374;2023-06-01T02:03:49;9.03;;;7.93;;
37001;SDS011;22913;51.910;8.374;2023-06-01T02:06:43;8.47;;;7.10;;
37001;SDS011;22913;51.910;8.374;2023-06-01T02:09:28;15.70;;;7.60;;
37001;SDS011;22913;51.910;8.374;2023-06-01T02:12:14;8.30;;;7.13;;
37001;SDS011;22913;51.910;8.374;2023-06-01T02:15:00;7.53;;;6.77;;
37001;SDS011;22913;51.910;8.374;2023-06-01T02:17:45;9.63;;;8.33;;
37001;SDS011;22913;51.910;8.374;2023-06-01T02:20:33;10.23;;;7.37;;
37001;SDS011;22913;51.910;8.374;2023-06-01T02:23:18;8.87;;;7.30;;
37001;SDS011;22913;51.910;8.374;2023-06-01T02:26:04;12.70;;;7.60;;
37001;SDS011;22913;51.910;8.374;2023-06-01T02:28:49;8.20;;;7.00;;
37001;SDS011;22913;51.910;8.374;2023-06-01T02:31:35;9.50;;;7.37;;
37001;SDS011;22913;51.910;8.374;2023-06-01T02:34:21;13.97;;;7.00;;
37001;SDS011;22913;51.910;8.374;2023-06-01T02:37:08;12.53;;;7.60;;
37001;SDS011;22913;51.910;8.374;2023-06-01T02:39:54;9.83;;;7.17;;
37001;SDS011;22913;51.910;8.374;2023-06-01T02:42:40;7.67;;;6.83;;
37001;SDS011;22913;51.910;8.374;2023-06-01T02:45:26;9.20;;;7.30;;
37001;SDS011;22913;51.910;8.374;2023-06-01T02:48:11;12.53;;;7.60;;
37001;SDS011;22913;51.910;8.374;2023-06-01T02:50:58;8.63;;;7.17;;
37001;SDS011;22913;51.910;8.374;2023-06-01T02:53:45;12.10;;;7.47;;
37001;SDS011;22913;51.910;8.374;2023-06-01T02:56:31;15.60;;;6.93;;
37001;SDS011;22913;51.910;8.374;2023-06-01T02:59:17;10.83;;;6.43;;
37001;SDS011;22913;51.910;8.374;2023-06-01T03:02:02;9.03;;;6.80;;
37001;SDS011;22913;51.910;8.374;2023-06-01T03:04:48;11.30;;;7.37;;
37001;SDS011;22913;51.910;8.374;2023-06-01T03:07:34;7.43;;;5.70;;
37001;SDS011;22913;51.910;8.374;2023-06-01T03:10:21;8.00;;;6.63;;
37001;SDS011;22913;51.910;8.374;2023-06-01T03:13:06;11.07;;;7.03;;
37001;SDS011;22913;51.910;8.374;2023-06-01T03:15:52;8.80;;;6.23;;
37001;SDS011;22913;51.910;8.374;2023-06-01T03:18:37;8.03;;;6.43;;
37001;SDS011;22913;51.910;8.374;2023-06-01T03:21:23;9.47;;;6.87;;
37001;SDS011;22913;51.910;8.374;2023-06-01T03:24:10;9.10;;;6.20;;
37001;SDS011;22913;51.910;8.374;2023-06-01T03:26:57;10.03;;;6.20;;
37001;SDS011;22913;51.910;8.374;2023-06-01T03:29:43;12.13;;;6.70;;
37001;SDS011;22913;51.910;8.374;2023-06-01T03:32:29;9.50;;;6.30;;
37001;SDS011;22913;51.910;8.374;2023-06-01T03:35:14;8.80;;;6.20;;
37001;SDS011;22913;51.910;8.374;2023-06-01T03:38:00;8.40;;;6.60;;
37001;SDS011;22913;51.910;8.374;2023-06-01T03:40:46;9.15;;;6.80;;
37001;SDS011;22913;51.910;8.374;2023-06-01T03:43:33;9.70;;;6.80;;
37001;SDS011;22913;51.910;8.374;2023-06-01T03:46:18;9.50;;;7.30;;
37001;SDS011;22913;51.910;8.374;2023-06-01T03:49:04;8.65;;;6.95;;
37001;SDS011;22913;51.910;8.374;2023-06-01T03:54:35;13.70;;;7.87;;
37001;SDS011;22913;51.910;8.374;2023-06-01T03:57:21;9.97;;;7.50;;
37001;SDS011;22913;51.910;8.374;2023-06-01T04:00:08;9.10;;;7.93;;
37001;SDS011;22913;51.910;8.374;2023-06-01T04:03:02;10.77;;;8.33;;
37001;SDS011;22913;51.910;8.374;2023-06-01T04:05:50;11.87;;;7.80;;
37001;SDS011;22913;51.910;8.374;2023-06-01T04:08:42;9.57;;;7.67;;
37001;SDS011;22913;51.910;8.374;2023-06-01T04:11:32;10.50;;;8.63;;
37001;SDS011;22913;51.910;8.374;2023-06-01T04:14:18;13.87;;;8.23;;
37001;SDS011;22913;51.910;8.374;2023-06-01T04:17:05;11.90;;;8.80;;
37001;SDS011;22913;51.910;8.374;2023-06-01T04:19:51;10.73;;;8.23;;
37001;SDS011;22913;51.910;8.374;2023-06-01T04:22:37;10.67;;;8.90;;
37001;SDS011;22913;51.910;8.374;2023-06-01T04:25:22;11.73;;;8.93;;
37001;SDS011;22913;51.910;8.374;2023-06-01T04:28:08;11.53;;;8.93;;
37001;SDS011;22913;51.910;8.374;2023-06-01T04:30:54;12.55;;;9.20;;
37001;SDS011;22913;51.910;8.374;2023-06-01T04:33:41;12.83;;;9.83;;
37001;SDS011;22913;51.910;8.374;2023-06-01T04:36:28;12.97;;;9.53;;
37001;SDS011;22913;51.910;8.374;2023-06-01T04:39:13;11.77;;;10.43;;
37001;SDS011;22913;51.910;8.374;2023-06-01T04:41:59;10.13;;;9.13;;
37001;SDS011;22913;51.910;8.374;2023-06-01T04:44:46;9.63;;;8.63;;
37001;SDS011;22913;51.910;8.374;2023-06-01T04:47:33;11.25;;;9.75;;
37001;SDS011;22913;51.910;8.374;2023-06-01T04:50:22;12.40;;;10.70;;
37001;SDS011;22913;51.910;8.374;2023-06-01T04:53:08;13.75;;;10.75;;
37001;SDS011;22913;51.910;8.374;2023-06-01T04:55:54;13.10;;;11.40;;
37001;SDS011;22913;51.910;8.374;2023-06-01T04:58:40;11.70;;;10.50;;
37001;SDS011;22913;51.910;8.374;2023-06-01T05:01:26;12.57;;;11.27;;
37001;SDS011;22913;51.910;8.374;2023-06-01T05:04:12;14.00;;;11.30;;
37001;SDS011;22913;51.910;8.374;2023-06-01T05:06:59;13.40;;;11.30;;
37001;SDS011;22913;51.910;8.374;2023-06-01T05:09:45;14.00;;;10.60;;
37001;SDS011;22913;51.910;8.374;2023-06-01T05:15:16;13.73;;;11.37;;
37001;SDS011;22913;51.910;8.374;2023-06-01T05:18:02;13.37;;;10.83;;
37001;SDS011;22913;51.910;8.374;2023-06-01T05:20:48;16.73;;;11.50;;
37001;SDS011;22913;51.910;8.374;2023-06-01T05:23:35;15.45;;;11.80;;
37001;SDS011;22913;51.910;8.374;2023-06-01T05:26:20;12.15;;;10.90;;
37001;SDS011;22913;51.910;8.374;2023-06-01T05:29:06;13.05;;;11.10;;
37001;SDS011;22913;51.910;8.374;2023-06-01T05:31:52;12.35;;;11.05;;
37001;SDS011;22913;51.910;8.374;2023-06-01T05:34:37;12.05;;;10.55;;
37001;SDS011;22913;51.910;8.374;2023-06-01T05:37:23;11.60;;;10.40;;
37001;SDS011;22913;51.910;8.374;2023-06-01T05:40:11;11.90;;;10.40;;
37001;SDS011;22913;51.910;8.374;2023-06-01T05:42:56;10.50;;;9.10;;
37001;SDS011;22913;51.910;8.374;2023-06-01T05:45:42;13.95;;;10.05;;
37001;SDS011;22913;51.910;8.374;2023-06-01T05:48:28;12.00;;;9.40;;
37001;SDS011;22913;51.910;8.374;2023-06-01T05:51:13;11.70;;;8.83;;
37001;SDS011;22913;51.910;8.374;2023-06-01T05:53:59;10.23;;;8.93;;
37001;SDS011;22913;51.910;8.374;2023-06-01T05:56:46;12.13;;;8.83;;
37001;SDS011;22913;51.910;8.374;2023-06-01T05:59:32;9.63;;;8.23;;
37001;SDS011;22913;51.910;8.374;2023-06-01T06:02:17;12.00;;;8.80;;
37001;SDS011;22913;51.910;8.374;2023-06-01T06:05:03;14.73;;;9.17;;
37001;SDS011;22913;51.910;8.374;2023-06-01T06:07:50;10.25;;;8.30;;
37001;SDS011;22913;51.910;8.374;2023-06-01T06:13:22;12.40;;;8.30;;
37001;SDS011;22913;51.910;8.374;2023-06-01T06:16:08;11.03;;;9.03;;
37001;SDS011;22913;51.910;8.374;2023-06-01T06:18:53;10.63;;;8.33;;
37001;SDS011;22913;51.910;8.374;2023-06-01T06:21:39;12.20;;;8.73;;
37001;SDS011;22913;51.910;8.374;2023-06-01T06:24:25;13.57;;;8.50;;
37001;SDS011;22913;51.910;8.374;2023-06-01T06:27:11;9.90;;;8.90;;
37001;SDS011;22913;51.910;8.374;2023-06-01T06:29:58;10.00;;;8.47;;
37001;SDS011;22913;51.910;8.374;2023-06-01T06:32:43;11.93;;;9.00;;
37001;SDS011;22913;51.910;8.374;2023-06-01T06:35:29;12.75;;;8.85;;
37001;SDS011;22913;51.910;8.374;2023-06-01T06:38:15;17.67;;;9.47;;
37001;SDS011;22913;51.910;8.374;2023-06-01T06:41:00;11.20;;;8.50;;
37001;SDS011;22913;51.910;8.374;2023-06-01T06:43:46;11.33;;;8.93;;
37001;SDS011;22913;51.910;8.374;2023-06-01T06:46:33;11.83;;;9.43;;
37001;SDS011;22913;51.910;8.374;2023-06-01T06:49:19;10.07;;;7.83;;
37001;SDS011;22913;51.910;8.374;2023-06-01T06:52:05;15.37;;;8.90;;
37001;SDS011;22913;51.910;8.374;2023-06-01T06:54:53;10.93;;;7.80;;
37001;SDS011;22913;51.910;8.374;2023-06-01T06:57:39;9.07;;;8.17;;
37001;SDS011;22913;51.910;8.374;2023-06-01T07:00:25;15.30;;;8.33;;
37001;SDS011;22913;51.910;8.374;2023-06-01T07:03:12;9.10;;;7.33;;
37001;SDS011;22913;51.910;8.374;2023-06-01T07:05:58;14.17;;;8.10;;
37001;SDS011;22913;51.910;8.374;2023-06-01T07:08:44;10.67;;;8.23;;
37001;SDS011;22913;51.910;8.374;2023-06-01T07:11:29;12.60;;;8.33;;
37001;SDS011;22913;51.910;8.374;2023-06-01T07:14:15;13.13;;;8.00;;
37001;SDS011;22913;51.910;8.374;2023-06-01T07:17:01;11.23;;;8.13;;
37001;SDS011;22913;51.910;8.374;2023-06-01T07:19:48;12.23;;;8.63;;
37001;SDS011;22913;51.910;8.374;2023-06-01T07:22:33;11.47;;;8.90;;
37001;SDS011;22913;51.910;8.374;2023-06-01T07:25:19;10.13;;;8.33;;
37001;SDS011;22913;51.910;8.374;2023-06-01T07:28:04;13.30;;;8.70;;
37001;SDS011;22913;51.910;8.374;2023-06-01T07:30:51;12.30;;;8.90;;
37001;SDS011;22913;51.910;8.374;2023-06-01T07:33:37;10.70;;;8.23;;
37001;SDS011;22913;51.910;8.374;2023-06-01T07:36:24;9.83;;;8.80;;
37001;SDS011;22913;51.910;8.374;2023-06-01T07:39:09;13.03;;;9.30;;
37001;SDS011;22913;51.910;8.374;2023-06-01T07:41:55;11.03;;;8.77;;
37001;SDS011;22913;51.910;8.374;2023-06-01T07:44:41;12.70;;;9.53;;
37001;SDS011;22913;51.910;8.374;2023-06-01T07:47:26;10.70;;;8.37;;
37001;SDS011;22913;51.910;8.374;2023-06-01T07:50:12;12.43;;;8.50;;
37001;SDS011;22913;51.910;8.374;2023-06-01T07:52:59;9.40;;;8.40;;
37001;SDS011;22913;51.910;8.374;2023-06-01T07:55:45;16.47;;;8.57;;
37001;SDS011;22913;51.910;8.374;2023-06-01T07:58:32;14.17;;;9.67;;
37001;SDS011;22913;51.910;8.374;2023-06-01T08:01:17;11.50;;;8.23;;
37001;SDS011;22913;51.910;8.374;2023-06-01T08:04:03;9.73;;;8.63;;
37001;SDS011;22913;51.910;8.374;2023-06-01T08:06:49;14.07;;;9.80;;
37001;SDS011;22913;51.910;8.374;2023-06-01T08:09:38;11.73;;;9.00;;
37001;SDS011;22913;51.910;8.374;2023-06-01T08:12:26;12.27;;;9.13;;
37001;SDS011;22913;51.910;8.374;2023-06-01T08:15:11;11.83;;;8.67;;
37001;SDS011;22913;51.910;8.374;2023-06-01T08:17:57;14.53;;;9.43;;
37001;SDS011;22913;51.910;8.374;2023-06-01T08:20:43;12.30;;;8.13;;
37001;SDS011;22913;51.910;8.374;2023-06-01T08:23:28;11.20;;;8.50;;
37001;SDS011;22913;51.910;8.374;2023-06-01T08:26:16;8.00;;;7.20;;
37001;SDS011;22913;51.910;8.374;2023-06-01T08:29:02;9.47;;;7.10;;
37001;SDS011;22913;51.910;8.374;2023-06-01T08:31:47;7.70;;;6.90;;
37001;SDS011;22913;51.910;8.374;2023-06-01T08:34:33;8.80;;;7.73;;
37001;SDS011;22913;51.910;8.374;2023-06-01T08:37:19;10.10;;;7.67;;
37001;SDS011;22913;51.910;8.374;2023-06-01T08:40:05;11.47;;;8.00;;
37001;SDS011;22913;51.910;8.374;2023-06-01T08:42:57;9.93;;;8.53;;
37001;SDS011;22913;51.910;8.374;2023-06-01T08:45:44;10.40;;;7.87;;
37001;SDS011;22913;51.910;8.374;2023-06-01T08:48:31;12.87;;;7.87;;
37001;SDS011;22913;51.910;8.374;2023-06-01T08:51:18;9.27;;;7.67;;
37001;SDS011;22913;51.910;8.374;2023-06-01T08:54:04;10.23;;;7.63;;
37001;SDS011;22913;51.910;8.374;2023-06-01T08:56:53;10.07;;;8.30;;
37001;SDS011;22913;51.910;8.374;2023-06-01T08:59:40;16.07;;;8.60;;
37001;SDS011;22913;51.910;8.374;2023-06-01T09:02:25;8.60;;;7.30;;
37001;SDS011;22913;51.910;8.374;2023-06-01T09:05:12;11.23;;;7.90;;
37001;SDS011;22913;51.910;8.374;2023-06-01T09:07:57;10.47;;;7.00;;
37001;SDS011;22913;51.910;8.374;2023-06-01T09:10:43;7.93;;;6.67;;
37001;SDS011;22913;51.910;8.374;2023-06-01T09:13:32;7.40;;;5.97;;
37001;SDS011;22913;51.910;8.374;2023-06-01T09:16:20;9.40;;;6.30;;
37001;SDS011;22913;51.910;8.374;2023-06-01T09:19:06;6.43;;;5.83;;
37001;SDS011;22913;51.910;8.374;2023-06-01T09:21:56;9.47;;;6.53;;
37001;SDS011;22913;51.910;8.374;2023-06-01T09:24:42;7.30;;;5.87;;
37001;SDS011;22913;51.910;8.374;2023-06-01T09:27:44;10.57;;;6.87;;
37001;SDS011;22913;51.910;8.374;2023-06-01T09:30:40;10.80;;;6.47;;
37001;SDS011;22913;51.910;8.374;2023-06-01T09:33:29;9.60;;;6.23;;
37001;SDS011;22913;51.910;8.374;2023-06-01T09:36:17;9.30;;;6.40;;
37001;SDS011;22913;51.910;8.374;2023-06-01T09:39:09;9.20;;;6.70;;
37001;SDS011;22913;51.910;8.374;2023-06-01T09:41:56;9.97;;;6.67;;
37001;SDS011;22913;51.910;8.374;2023-06-01T09:44:45;8.97;;;7.50;;
37001;SDS011;22913;51.910;8.374;2023-06-01T09:47:30;9.40;;;6.97;;
37001;SDS011;22913;51.910;8.374;2023-06-01T09:53:09;10.20;;;7.50;;
37001;SDS011;22913;51.910;8.374;2023-06-01T09:55:58;8.53;;;6.70;;
37001;SDS011;22913;51.910;8.374;2023-06-01T09:58:44;9.73;;;6.50;;
37001;SDS011;22913;51.910;8.374;2023-06-01T10:01:30;14.17;;;7.43;;
37001;SDS011;22913;51.910;8.374;2023-06-01T10:04:17;8.73;;;6.97;;
37001;SDS011;22913;51.910;8.374;2023-06-01T10:07:06;10.57;;;6.80;;
37001;SDS011;22913;51.910;8.374;2023-06-01T10:09:57;13.07;;;7.00;;
37001;SDS011;22913;51.910;8.374;2023-06-01T10:12:46;10.27;;;7.03;;
37001;SDS011;22913;51.910;8.374;2023-06-01T10:15:31;11.37;;;8.10;;
37001;SDS011;22913;51.910;8.374;2023-06-01T10:18:17;8.97;;;7.03;;
37001;SDS011;22913;51.910;8.374;2023-06-01T10:21:03;10.23;;;7.10;;
37001;SDS011;22913;51.910;8.374;2023-06-01T10:23:51;10.87;;;6.13;;
37001;SDS011;22913;51.910;8.374;2023-06-01T10:26:39;8.57;;;6.50;;
37001;SDS011;22913;51.910;8.374;2023-06-01T10:29:29;9.57;;;6.33;;
37001;SDS011;22913;51.910;8.374;2023-06-01T10:35:50;9.13;;;6.93;;
37001;SDS011;22913;51.910;8.374;2023-06-01T10:38:37;8.00;;;6.23;;
37001;SDS011;22913;51.910;8.374;2023-06-01T10:41:27;7.80;;;5.90;;
37001;SDS011;22913;51.910;8.374;2023-06-01T10:44:26;6.93;;;6.10;;
37001;SDS011;22913;51.910;8.374;2023-06-01T10:50:41;8.17;;;5.97;;
37001;SDS011;22913;51.910;8.374;2023-06-01T10:53:27;6.83;;;6.17;;
37001;SDS011;22913;51.910;8.374;2023-06-01T10:56:20;7.57;;;6.33;;
37001;SDS011;22913;51.910;8.374;2023-06-01T10:59:10;6.67;;;6.07;;
37001;SDS011;22913;51.910;8.374;2023-06-01T11:01:58;7.03;;;5.70;;
37001;SDS011;22913;51.910;8.374;2023-06-01T11:04:49;6.90;;;5.73;;
37001;SDS011;22913;51.910;8.374;2023-06-01T11:07:34;9.07;;;6.10;;
37001;SDS011;22913;51.910;8.374;2023-06-01T11:13:39;11.50;;;8.40;;
37001;SDS011;22913;51.910;8.374;2023-06-01T11:16:28;9.77;;;8.53;;
37001;SDS011;22913;51.910;8.374;2023-06-01T11:19:18;9.63;;;8.43;;
37001;SDS011;22913;51.910;8.374;2023-06-01T11:22:08;9.90;;;8.83;;
37001;SDS011;22913;51.910;8.374;2023-06-01T11:24:56;10.57;;;9.43;;
37001;SDS011;22913;51.910;8.374;2023-06-01T11:27:44;10.20;;;8.90;;
37001;SDS011;22913;51.910;8.374;2023-06-01T11:30:30;11.80;;;10.13;;
37001;SDS011;22913;51.910;8.374;2023-06-01T11:33:16;10.37;;;9.27;;
37001;SDS011;22913;51.910;8.374;2023-06-01T11:36:04;12.27;;;8.77;;
37001;SDS011;22913;51.910;8.374;2023-06-01T11:38:50;9.50;;;8.50;;
37001;SDS011;22913;51.910;8.374;2023-06-01T11:41:36;13.67;;;9.87;;
37001;SDS011;22913;51.910;8.374;2023-06-01T11:44:21;11.23;;;8.47;;
37001;SDS011;22913;51.910;8.374;2023-06-01T11:47:08;12.67;;;8.87;;
37001;SDS011;22913;51.910;8.374;2023-06-01T11:49:55;9.47;;;8.47;;
37001;SDS011;22913;51.910;8.374;2023-06-01T11:52:42;9.27;;;7.50;;
37001;SDS011;22913;51.910;8.374;2023-06-01T11:55:27;10.47;;;8.07;;
37001;SDS011;22913;51.910;8.374;2023-06-01T11:58:13;8.73;;;6.67;;
37001;SDS011;22913;51.910;8.374;2023-06-01T12:00:59;7.03;;;5.77;;
37001;SDS011;22913;51.910;8.374;2023-06-01T12:03:45;7.13;;;6.43;;
37001;SDS011;22913;51.910;8.374;2023-06-01T12:06:31;7.27;;;6.57;;
37001;SDS011;22913;51.910;8.374;2023-06-01T12:09:18;7.57;;;6.80;;
37001;SDS011;22913;51.910;8.374;2023-06-01T12:12:04;7.17;;;6.47;;
37001;SDS011;22913;51.910;8.374;2023-06-01T12:14:52;6.80;;;6.10;;
37001;SDS011;22913;51.910;8.374;2023-06-01T12:20:42;6.37;;;5.77;;
37001;SDS011;22913;51.910;8.374;2023-06-01T12:23:28;6.07;;;5.10;;
37001;SDS011;22913;51.910;8.374;2023-06-01T12:26:16;5.53;;;5.07;;
37001;SDS011;22913;51.910;8.374;2023-06-01T12:29:02;5.73;;;5.13;;
37001;SDS011;22913;51.910;8.374;2023-06-01T12:31:52;6.60;;;5.43;;
37001;SDS011;22913;51.910;8.374;2023-06-01T12:34:39;5.53;;;5.03;;
37001;SDS011;22913;51.910;8.374;2023-06-01T12:37:31;6.03;;;5.00;;
37001;SDS011;22913;51.910;8.374;2023-06-01T12:40:21;5.63;;;5.10;;
37001;SDS011;22913;51.910;8.374;2023-06-01T12:43:18;7.63;;;5.53;;
37001;SDS011;22913;51.910;8.374;2023-06-01T12:46:04;6.13;;;5.37;;
37001;SDS011;22913;51.910;8.374;2023-06-01T12:48:51;5.30;;;4.80;;
37001;SDS011;22913;51.910;8.374;2023-06-01T12:51:37;7.03;;;6.00;;
37001;SDS011;22913;51.910;8.374;2023-06-01T12:54:23;6.73;;;6.13;;
37001;SDS011;22913;51.910;8.374;2023-06-01T12:57:12;8.00;;;7.23;;
37001;SDS011;22913;51.910;8.374;2023-06-01T12:59:59;8.30;;;7.50;;
37001;SDS011;22913;51.910;8.374;2023-06-01T13:02:46;9.37;;;8.57;;
37001;SDS011;22913;51.910;8.374;2023-06-01T13:05:32;10.07;;;8.80;;
37001;SDS011;22913;51.910;8.374;2023-06-01T13:08:18;10.77;;;9.83;;
37001;SDS011;22913;51.910;8.374;2023-06-01T13:11:04;9.50;;;8.47;;
37001;SDS011;22913;51.910;8.374;2023-06-01T13:13:50;7.37;;;6.77;;
37001;SDS011;22913;51.910;8.374;2023-06-01T13:16:37;6.20;;;5.77;;
37001;SDS011;22913;51.910;8.374;2023-06-01T13:19:23;6.60;;;6.00;;
37001;SDS011;22913;51.910;8.374;2023-06-01T13:22:09;5.60;;;5.20;;
37001;SDS011;22913;51.910;8.374;2023-06-01T13:24:55;4.93;;;4.40;;
37001;SDS011;22913;51.910;8.374;2023-06-01T13:27:41;6.40;;;4.83;;
37001;SDS011;22913;51.910;8.374;2023-06-01T13:30:27;4.97;;;4.57;;
37001;SDS011;22913;51.910;8.374;2023-06-01T13:33:15;5.50;;;5.00;;
37001;SDS011;22913;51.910;8.374;2023-06-01T13:36:01;5.97;;;5.47;;
37001;SDS011;22913;51.910;8.374;2023-06-01T13:38:47;5.70;;;5.20;;
37001;SDS011;22913;51.910;8.374;2023-06-01T13:41:33;5.17;;;4.73;;
37001;SDS011;22913;51.910;8.374;2023-06-01T13:44:18;4.90;;;4.40;;
37001;SDS011;22913;51.910;8.374;2023-06-01T13:47:04;4.60;;;4.20;;
37001;SDS011;22913;51.910;8.374;2023-06-01T13:49:52;5.03;;;4.63;;
37001;SDS011;22913;51.910;8.374;2023-06-01T13:52:38;4.10;;;3.87;;
37001;SDS011;22913;51.910;8.374;2023-06-01T13:55:24;5.27;;;4.53;;
37001;SDS011;22913;51.910;8.374;2023-06-01T13:58:11;4.93;;;4.37;;
37001;SDS011;22913;51.910;8.374;2023-06-01T14:00:57;4.03;;;3.73;;
37001;SDS011;22913;51.910;8.374;2023-06-01T14:03:43;4.27;;;3.87;;
37001;SDS011;22913;51.910;8.374;2023-06-01T14:06:30;4.47;;;4.03;;
37001;SDS011;22913;51.910;8.374;2023-06-01T14:09:16;4.97;;;4.00;;
37001;SDS011;22913;51.910;8.374;2023-06-01T14:12:01;4.57;;;4.27;;
37001;SDS011;22913;51.910;8.374;2023-06-01T14:14:47;4.03;;;3.83;;
37001;SDS011;22913;51.910;8.374;2023-06-01T14:17:32;4.80;;;4.40;;
37001;SDS011;22913;51.910;8.374;2023-06-01T14:20:18;5.33;;;4.80;;
37001;SDS011;22913;51.910;8.374;2023-06-01T14:23:05;4.20;;;3.90;;
37001;SDS011;22913;51.910;8.374;2023-06-01T14:25:53;4.70;;;4.30;;
37001;SDS011;22913;51.910;8.374;2023-06-01T14:28:38;4.47;;;4.03;;
37001;SDS011;22913;51.910;8.374;2023-06-01T14:31:24;4.47;;;4.07;;
37001;SDS011;22913;51.910;8.374;2023-06-01T14:34:10;3.90;;;3.60;;
37001;SDS011;22913;51.910;8.374;2023-06-01T14:36:56;3.90;;;3.60;;
37001;SDS011;22913;51.910;8.374;2023-06-01T14:39:42;4.30;;;4.00;;
37001;SDS011;22913;51.910;8.374;2023-06-01T14:42:29;4.03;;;3.03;;
37001;SDS011;22913;51.910;8.374;2023-06-01T14:45:15;3.87;;;3.47;;
37001;SDS011;22913;51.910;8.374;2023-06-01T14:48:03;3.50;;;3.10;;
37001;SDS011;22913;51.910;8.374;2023-06-01T14:50:49;3.50;;;3.20;;
37001;SDS011;22913;51.910;8.374;2023-06-01T14:53:34;7.00;;;3.50;;
37001;SDS011;22913;51.910;8.374;2023-06-01T14:56:22;3.50;;;3.27;;
37001;SDS011;22913;51.910;8.374;2023-06-01T14:59:07;3.10;;;2.87;;
37001;SDS011;22913;51.910;8.374;2023-06-01T15:01:53;3.10;;;2.90;;
37001;SDS011;22913;51.910;8.374;2023-06-01T15:04:38;3.27;;;3.03;;
37001;SDS011;22913;51.910;8.374;2023-06-01T15:07:24;3.17;;;2.97;;
37001;SDS011;22913;51.910;8.374;2023-06-01T15:10:10;3.50;;;3.20;;
37001;SDS011;22913;51.910;8.374;2023-06-01T15:12:57;3.53;;;3.23;;
37001;SDS011;22913;51.910;8.374;2023-06-01T15:15:42;3.07;;;2.87;;
37001;SDS011;22913;51.910;8.374;2023-06-01T15:18:28;3.20;;;3.00;;
37001;SDS011;22913;51.910;8.374;2023-06-01T15:21:13;3.30;;;3.10;;
37001;SDS011;22913;51.910;8.374;2023-06-01T15:23:59;3.23;;;2.93;;
37001;SDS011;22913;51.910;8.374;2023-06-01T15:26:45;3.30;;;3.10;;
37001;SDS011;22913;51.910;8.374;2023-06-01T15:29:32;3.23;;;3.03;;
37001;SDS011;22913;51.910;8.374;2023-06-01T15:32:19;3.37;;;3.17;;
37001;SDS011;22913;51.910;8.374;2023-06-01T15:35:05;3.37;;;3.17;;
37001;SDS011;22913;51.910;8.374;2023-06-01T15:37:52;3.33;;;3.13;;
37001;SDS011;22913;51.910;8.374;2023-06-01T15:40:38;4.93;;;3.23;;
37001;SDS011;22913;51.910;8.374;2023-06-01T15:43:23;3.57;;;3.27;;
37001;SDS011;22913;51.910;8.374;2023-06-01T15:46:10;3.50;;;2.83;;
37001;SDS011;22913;51.910;8.374;2023-06-01T15:48:56;3.40;;;3.20;;
37001;SDS011;22913;51.910;8.374;2023-06-01T15:51:41;3.40;;;3.20;;
37001;SDS011;22913;51.910;8.374;2023-06-01T15:54:27;3.47;;;3.27;;
37001;SDS011;22913;51.910;8.374;2023-06-01T15:57:13;5.80;;;3.50;;
37001;SDS011;22913;51.910;8.374;2023-06-01T15:59:58;6.40;;;3.90;;
37001;SDS011;22913;51.910;8.374;2023-06-01T16:02:45;4.17;;;3.87;;
37001;SDS011;22913;51.910;8.374;2023-06-01T16:05:30;4.37;;;3.30;;
37001;SDS011;22913;51.910;8.374;2023-06-01T16:08:16;3.10;;;2.80;;
37001;SDS011;22913;51.910;8.374;2023-06-01T16:11:02;2.70;;;2.50;;
37001;SDS011;22913;51.910;8.374;2023-06-01T16:13:47;2.80;;;2.60;;
37001;SDS011;22913;51.910;8.374;2023-06-01T16:16:33;2.80;;;2.60;;
37001;SDS011;22913;51.910;8.374;2023-06-01T16:19:20;2.90;;;2.70;;
37001;SDS011;22913;51.910;8.374;2023-06-01T16:22:05;3.67;;;3.10;;
37001;SDS011;22913;51.910;8.374;2023-06-01T16:24:51;2.90;;;2.70;;
37001;SDS011;22913;51.910;8.374;2023-06-01T16:27:37;3.30;;;3.07;;
37001;SDS011;22913;51.910;8.374;2023-06-01T16:30:22;3.27;;;2.97;;
37001;SDS011;22913;51.910;8.374;2023-06-01T16:33:08;3.63;;;3.40;;
37001;SDS011;22913;51.910;8.374;2023-06-01T16:35:56;5.13;;;3.10;;
37001;SDS011;22913;51.910;8.374;2023-06-01T16:38:41;4.33;;;3.17;;
37001;SDS011;22913;51.910;8.374;2023-06-01T16:41:27;3.37;;;3.17;;
37001;SDS011;22913;51.910;8.374;2023-06-01T16:44:13;3.63;;;3.33;;
37001;SDS011;22913;51.910;8.374;2023-06-01T16:46:58;3.37;;;3.07;;
37001;SDS011;22913;51.910;8.374;2023-06-01T16:49:44;4.83;;;3.87;;
37001;SDS011;22913;51.910;8.374;2023-06-01T16:52:31;3.60;;;3.30;;
37001;SDS011;22913;51.910;8.374;2023-06-01T16:55:17;4.50;;;3.57;;
37001;SDS011;22913;51.910;8.374;2023-06-01T16:58:02;5.10;;;3.77;;
37001;SDS011;22913;51.910;8.374;2023-06-01T17:00:48;5.20;;;3.83;;